Time;durP1;ratioP1;P1;durP2;ratioP2;P2;SDS_P1;SDS_P2;PMS_P1;PMS_P2;Temp;Humidity;BMP_temperature;BMP_pressure;BME280_temperature;BME280_humidity;BME280_pressure;Samples;Min_cycle;Max_cycle;Signal;HPM_P1;HPM_P2
2023/10/30 00:01:49;;;;;;;5.40;1.07;;;;;;;;;;4936778;29;20234;-87
2023/10/30 00:04:18;;;;;;;1.77;1.30;;;;;;;;;;4936768;29;20298;-87
2023/10/30 00:06:47;;;;;;;3.80;1.23;;;;;;;;;;4936972;29;20203;-87
2023/10/30 00:09:15;;;;;;;4.47;1.10;;;;;;;;;;4937747;29;20191;-89
2023/10/30 00:11:46;;;;;;;2.87;1.33;;;;;;;;;;4940393;29;20206;-87
2023/10/30 00:14:16;;;;;;;1.63;1.07;;;;;;;;;;4951254;29;20204;-87
2023/10/30 00:16:46;;;;;;;11.73;1.70;;;;;;;;;;4952415;29;20191;-87
2023/10/30 00:19:14;;;;;;;3.47;1.10;;;;;;;;;;4950811;29;20294;-87
2023/10/30 00:21:47;;;;;;;9.10;1.37;;;;;;;;;;4951460;29;20211;-87
2023/10/30 00:24:17;;;;;;;1.80;1.10;;;;;;;;;;4950595;29;20191;-87
2023/10/30 00:26:48;;;;;;;4.77;1.10;;;;;;;;;;4949736;29;20215;-88
2023/10/30 00:29:18;;;;;;;1.90;1.33;;;;;;;;;;4954062;29;20203;-87
2023/10/30 00:31:49;;;;;;;2.53;1.07;;;;;;;;;;4955141;29;20191;-86
2023/10/30 00:34:21;;;;;;;3.70;1.30;;;;;;;;;;4958143;28;20187;-87
2023/10/30 00:36:55;;;;;;;4.43;1.47;;;;;;;;;;4958529;28;20377;-87
2023/10/30 00:39:24;;;;;;;3.77;1.30;;;;;;;;;;4959140;28;20227;-88
2023/10/30 00:41:55;;;;;;;1.30;1.20;;;;;;;;;;4957794;28;20207;-87
2023/10/30 00:44:25;;;;;;;3.97;1.23;;;;;;;;;;4959257;28;20199;-86
2023/10/30 00:46:58;;;;;;;2.43;1.40;;;;;;;;;;4958296;28;20206;-87
2023/10/30 00:49:28;;;;;;;5.93;1.33;;;;;;;;;;4942250;28;20213;-86
2023/10/30 00:51:58;;;;;;;1.33;1.23;;;;;;;;;;4937029;29;20231;-86
2023/10/30 00:54:29;;;;;;;5.80;1.10;;;;;;;;;;4936598;29;20262;-86
2023/10/30 00:57:04;;;;;;;1.47;1.37;;;;;;;;;;4935454;29;20239;-87
2023/10/30 00:59:36;;;;;;;1.23;0.90;;;;;;;;;;4936682;29;20231;-87
2023/10/30 01:02:04;;;;;;;1.07;1.07;;;;;;;;;;4936927;29;20220;-87
2023/10/30 01:04:35;;;;;;;3.50;0.90;;;;;;;;;;4939234;29;20207;-87
2023/10/30 01:07:04;;;;;;;1.00;0.97;;;;;;;;;;4955957;28;20214;-87
2023/10/30 01:09:36;;;;;;;1.87;1.30;;;;;;;;;;4957594;28;20193;-85
2023/10/30 01:12:04;;;;;;;0.70;0.70;;;;;;;;;;4958781;28;20214;-88
2023/10/30 01:14:33;;;;;;;1.23;1.17;;;;;;;;;;4950195;29;20231;-87
2023/10/30 01:17:04;;;;;;;0.87;0.87;;;;;;;;;;4940864;29;20196;-87
2023/10/30 01:19:34;;;;;;;1.80;0.90;;;;;;;;;;4936649;29;20242;-86
2023/10/30 01:22:02;;;;;;;0.83;0.83;;;;;;;;;;4943326;29;20209;-85
2023/10/30 01:24:35;;;;;;;7.87;1.07;;;;;;;;;;4944653;29;20587;-84
2023/10/30 01:27:04;;;;;;;2.23;1.30;;;;;;;;;;4940463;29;20192;-85
2023/10/30 01:29:33;;;;;;;1.33;1.23;;;;;;;;;;4937402;29;20206;-86
2023/10/30 01:32:02;;;;;;;1.30;1.20;;;;;;;;;;4937643;29;20231;-87
2023/10/30 01:34:31;;;;;;;2.07;1.07;;;;;;;;;;4937872;28;20294;-86
2023/10/30 01:37:07;;;;;;;1.03;1.03;;;;;;;;;;4935902;29;20250;-86
2023/10/30 01:39:39;;;;;;;4.00;1.43;;;;;;;;;;4938891;29;20317;-87
2023/10/30 01:42:11;;;;;;;3.53;1.20;;;;;;;;;;4939843;29;20199;-88
2023/10/30 01:44:55;;;;;;;1.17;1.13;;;;;;;;;;4939780;29;20207;-87
2023/10/30 01:47:25;;;;;;;1.80;1.33;;;;;;;;;;4939764;29;20621;-87
2023/10/30 01:49:58;;;;;;;1.80;1.30;;;;;;;;;;4940008;29;20207;-86
2023/10/30 01:52:32;;;;;;;2.10;1.30;;;;;;;;;;4939958;29;20205;-87
2023/10/30 01:55:06;;;;;;;3.10;1.27;;;;;;;;;;4939014;29;20213;-88
2023/10/30 01:57:35;;;;;;;2.03;1.47;;;;;;;;;;4939456;29;20226;-87
2023/10/30 02:00:07;;;;;;;3.40;1.37;;;;;;;;;;4939280;29;20238;-86
2023/10/30 02:02:37;;;;;;;1.40;1.30;;;;;;;;;;4939279;29;20232;-86
2023/10/30 02:05:08;;;;;;;1.77;1.33;;;;;;;;;;4939338;29;20226;-87
2023/10/30 02:07:37;;;;;;;1.30;1.17;;;;;;;;;;4939376;29;20213;-87
2023/10/30 02:10:09;;;;;;;1.70;1.60;;;;;;;;;;4938810;29;20516;-86
2023/10/30 02:12:40;;;;;;;1.30;1.30;;;;;;;;;;4939883;29;20202;-87
2023/10/30 02:15:11;;;;;;;7.10;1.63;;;;;;;;;;4940592;29;20222;-86
2023/10/30 02:17:42;;;;;;;4.27;1.10;;;;;;;;;;4937891;28;20211;-87
2023/10/30 02:20:10;;;;;;;2.20;1.23;;;;;;;;;;4944799;29;20227;-89
2023/10/30 02:22:39;;;;;;;1.60;1.53;;;;;;;;;;4938801;29;20203;-86
2023/10/30 02:25:11;;;;;;;2.37;1.20;;;;;;;;;;4938373;29;20207;-85
2023/10/30 02:27:42;;;;;;;1.70;1.60;;;;;;;;;;4943089;29;20215;-89
2023/10/30 02:30:13;;;;;;;2.10;1.63;;;;;;;;;;4920597;29;20231;-88
2023/10/30 02:32:44;;;;;;;5.47;1.50;;;;;;;;;;4930832;28;20258;-84
2023/10/30 02:35:14;;;;;;;1.20;1.03;;;;;;;;;;4949087;29;20231;-86
2023/10/30 02:37:47;;;;;;;4.30;1.70;;;;;;;;;;4944309;29;20278;-86
2023/10/30 02:40:17;;;;;;;3.50;1.13;;;;;;;;;;4941011;29;20235;-86
2023/10/30 02:42:51;;;;;;;1.13;0.97;;;;;;;;;;4940088;29;20207;-88
2023/10/30 02:45:24;;;;;;;1.90;1.80;;;;;;;;;;4942612;29;20231;-86
2023/10/30 02:47:56;;;;;;;2.80;1.40;;;;;;;;;;4943546;29;20210;-87
2023/10/30 02:50:26;;;;;;;7.87;1.70;;;;;;;;;;4939527;29;20426;-88
2023/10/30 02:52:55;;;;;;;2.10;1.70;;;;;;;;;;4939194;29;20196;-88
2023/10/30 02:55:26;;;;;;;1.30;1.20;;;;;;;;;;4937984;29;20290;-88
2023/10/30 02:57:56;;;;;;;3.20;1.47;;;;;;;;;;4939190;29;20214;-87
2023/10/30 03:00:26;;;;;;;2.30;1.33;;;;;;;;;;4939134;29;20260;-87
2023/10/30 03:02:56;;;;;;;2.20;1.40;;;;;;;;;;4938726;29;20219;-87
2023/10/30 03:05:24;;;;;;;1.60;1.50;;;;;;;;;;4940605;29;20270;-87
2023/10/30 03:07:53;;;;;;;2.37;1.47;;;;;;;;;;4938083;29;20196;-88
2023/10/30 03:10:22;;;;;;;1.50;1.40;;;;;;;;;;4936176;29;20211;-88
2023/10/30 03:12:52;;;;;;;1.60;1.50;;;;;;;;;;4938593;29;20359;-88
2023/10/30 03:15:25;;;;;;;1.97;1.73;;;;;;;;;;4939738;29;20241;-87
2023/10/30 03:17:54;;;;;;;1.00;1.00;;;;;;;;;;4939090;29;20234;-88
2023/10/30 03:20:23;;;;;;;3.83;1.37;;;;;;;;;;4938617;29;20343;-86
2023/10/30 03:22:53;;;;;;;3.23;1.53;;;;;;;;;;4944494;29;20227;-87
2023/10/30 03:25:22;;;;;;;1.20;1.20;;;;;;;;;;4939885;29;20211;-88
2023/10/30 03:27:54;;;;;;;1.33;1.00;;;;;;;;;;4938387;29;20203;-88
2023/10/30 03:30:23;;;;;;;1.23;1.23;;;;;;;;;;4937835;29;20692;-87
2023/10/30 03:32:54;;;;;;;1.10;1.10;;;;;;;;;;4937593;29;20207;-86
2023/10/30 03:35:26;;;;;;;2.00;1.20;;;;;;;;;;4938379;28;20243;-88
2023/10/30 03:37:56;;;;;;;1.67;1.57;;;;;;;;;;4938445;29;20298;-87
2023/10/30 03:40:25;;;;;;;3.20;1.80;;;;;;;;;;4942500;29;20258;-87
2023/10/30 03:42:59;;;;;;;5.87;1.10;;;;;;;;;;4940550;29;20214;-87
2023/10/30 03:45:29;;;;;;;1.90;0.97;;;;;;;;;;4937875;29;20188;-87
2023/10/30 03:47:57;;;;;;;1.23;1.17;;;;;;;;;;4938685;29;20199;-87
2023/10/30 03:50:28;;;;;;;1.63;1.50;;;;;;;;;;4938338;29;20291;-86
2023/10/30 03:52:58;;;;;;;1.50;1.40;;;;;;;;;;4938361;29;20207;-88
2023/10/30 03:55:27;;;;;;;4.60;1.70;;;;;;;;;;4945646;29;20187;-88
2023/10/30 03:57:57;;;;;;;1.70;1.60;;;;;;;;;;4953532;29;20196;-87
2023/10/30 04:00:29;;;;;;;1.43;1.20;;;;;;;;;;4957753;28;20242;-86
2023/10/30 04:03:00;;;;;;;3.23;1.67;;;;;;;;;;4953588;28;20551;-85
2023/10/30 04:05:29;;;;;;;1.57;1.27;;;;;;;;;;4937669;28;20207;-86
2023/10/30 04:08:00;;;;;;;1.30;1.30;;;;;;;;;;4937823;29;20211;-88
2023/10/30 04:10:29;;;;;;;3.33;1.10;;;;;;;;;;4937420;29;20364;-86
2023/10/30 04:13:01;;;;;;;1.83;1.60;;;;;;;;;;4937396;29;20207;-86
2023/10/30 04:15:35;;;;;;;1.33;1.33;;;;;;;;;;4935490;28;20617;-86
2023/10/30 04:18:05;;;;;;;1.80;1.57;;;;;;;;;;4926538;29;20237;-85
2023/10/30 04:20:34;;;;;;;1.83;1.73;;;;;;;;;;4948269;28;20286;-87
2023/10/30 04:23:07;;;;;;;1.20;1.20;;;;;;;;;;4938131;29;20222;-87
2023/10/30 04:25:36;;;;;;;1.87;1.33;;;;;;;;;;4936826;29;20279;-87
2023/10/30 04:28:05;;;;;;;2.10;1.67;;;;;;;;;;4933557;29;20215;-86
2023/10/30 04:30:36;;;;;;;3.57;1.77;;;;;;;;;;4936087;29;20207;-88
2023/10/30 04:33:07;;;;;;;4.07;1.53;;;;;;;;;;4936698;29;20275;-86
2023/10/30 04:35:38;;;;;;;7.20;2.27;;;;;;;;;;4935754;29;20239;-87
2023/10/30 04:38:09;;;;;;;3.43;1.80;;;;;;;;;;4937151;29;20583;-87
2023/10/30 04:40:42;;;;;;;5.23;1.83;;;;;;;;;;4937248;29;20294;-87
2023/10/30 04:43:09;;;;;;;4.67;2.30;;;;;;;;;;4937208;29;20215;-88
2023/10/30 04:45:42;;;;;;;1.93;1.67;;;;;;;;;;4937343;29;20266;-86
2023/10/30 04:48:12;;;;;;;1.50;1.40;;;;;;;;;;4936367;28;20218;-85
2023/10/30 04:50:43;;;;;;;1.60;1.50;;;;;;;;;;4955209;29;20202;-87
2023/10/30 04:53:22;;;;;;;1.57;1.47;;;;;;;;;;4937154;29;20603;-86
2023/10/30 04:55:50;;;;;;;1.93;1.50;;;;;;;;;;4936050;29;20217;-87
2023/10/30 04:58:18;;;;;;;6.87;2.20;;;;;;;;;;4937444;29;20215;-86
2023/10/30 05:00:59;;;;;;;2.87;2.33;;;;;;;;;;4937983;29;20250;-87
2023/10/30 05:03:26;;;;;;;4.57;2.47;;;;;;;;;;4936279;29;20253;-87
2023/10/30 05:05:56;;;;;;;5.40;2.50;;;;;;;;;;4937946;29;20214;-87
2023/10/30 05:08:26;;;;;;;2.90;2.50;;;;;;;;;;4939589;29;20251;-88
2023/10/30 05:10:57;;;;;;;3.80;2.60;;;;;;;;;;4938974;29;20207;-87
2023/10/30 05:13:28;;;;;;;10.80;5.33;;;;;;;;;;4939902;29;20199;-88
2023/10/30 05:16:01;;;;;;;19.77;2.90;;;;;;;;;;4940370;29;20636;-86
2023/10/30 05:18:36;;;;;;;4.20;2.40;;;;;;;;;;4940101;29;20286;-86
2023/10/30 05:21:04;;;;;;;2.97;2.70;;;;;;;;;;4936343;29;20233;-88
2023/10/30 05:23:34;;;;;;;2.20;2.10;;;;;;;;;;4938383;29;20210;-88
2023/10/30 05:26:07;;;;;;;1.93;1.83;;;;;;;;;;4936143;29;20200;-88
2023/10/30 05:28:36;;;;;;;5.10;2.47;;;;;;;;;;4936976;29;20367;-86
2023/10/30 05:31:07;;;;;;;3.40;2.53;;;;;;;;;;4938764;29;20633;-83
2023/10/30 05:33:41;;;;;;;5.23;3.07;;;;;;;;;;4940983;29;20226;-85
2023/10/30 05:36:11;;;;;;;3.97;2.73;;;;;;;;;;4936976;29;20250;-87
2023/10/30 05:38:42;;;;;;;14.47;8.67;;;;;;;;;;4935098;29;20644;-88
2023/10/30 05:41:11;;;;;;;11.27;5.70;;;;;;;;;;4936668;29;20231;-86
2023/10/30 05:43:47;;;;;;;4.10;3.72;;;;;;;;;;4945829;29;20198;-84
2023/10/30 05:46:18;;;;;;;14.45;10.55;;;;;;;;;;4951632;29;20357;-87
2023/10/30 05:48:54;;;;;;;53.85;18.88;;;;;;;;;;4946962;29;20459;-86
2023/10/30 05:51:27;;;;;;;13.73;5.05;;;;;;;;;;4937655;29;20225;-85
2023/10/30 05:53:59;;;;;;;6.10;3.78;;;;;;;;;;4938257;29;20206;-87
2023/10/30 05:56:33;;;;;;;5.63;4.53;;;;;;;;;;4936856;29;20667;-86
2023/10/30 05:59:03;;;;;;;16.92;6.05;;;;;;;;;;4937361;29;20198;-86
2023/10/30 06:01:35;;;;;;;12.18;3.17;;;;;;;;;;4938009;29;20257;-86
2023/10/30 06:04:24;;;;;;;15.90;4.47;;;;;;;;;;5308833;23;20246;-86
2023/10/30 06:06:57;;;;;;;6.22;2.80;;;;;;;;;;4957081;29;20369;-86
2023/10/30 06:09:27;;;;;;;4.03;3.63;;;;;;;;;;4955779;29;20583;-86
2023/10/30 06:11:56;;;;;;;5.10;3.40;;;;;;;;;;4955427;29;20195;-88
2023/10/30 06:14:37;;;;;;;16.52;9.50;;;;;;;;;;4955220;29;20289;-87
2023/10/30 06:17:07;;;;;;;4.10;3.38;;;;;;;;;;4955292;29;20275;-88
2023/10/30 06:19:42;;;;;;;4.63;4.22;;;;;;;;;;4954674;29;20209;-87
2023/10/30 06:22:15;;;;;;;7.03;3.35;;;;;;;;;;4954601;29;20235;-88
2023/10/30 06:24:44;;;;;;;6.38;3.17;;;;;;;;;;4954803;28;20207;-86
2023/10/30 06:27:17;;;;;;;3.75;3.45;;;;;;;;;;4957940;29;20563;-86
2023/10/30 06:29:45;;;;;;;3.60;3.08;;;;;;;;;;4958753;29;20210;-86
2023/10/30 06:32:18;;;;;;;3.72;3.40;;;;;;;;;;4962254;29;20301;-87
2023/10/30 06:34:47;;;;;;;3.53;3.20;;;;;;;;;;4959904;28;20211;-86
2023/10/30 06:37:15;;;;;;;4.10;3.80;;;;;;;;;;4958362;28;20227;-86
2023/10/30 06:39:45;;;;;;;3.45;3.13;;;;;;;;;;4962836;29;20210;-87
2023/10/30 06:42:15;;;;;;;6.00;3.10;;;;;;;;;;4960191;29;20223;-86
2023/10/30 06:44:46;;;;;;;4.75;3.17;;;;;;;;;;4959127;29;20203;-87
2023/10/30 06:47:39;;;;;;;3.20;3.00;;;;;;;;;;4960568;29;20278;-89
2023/10/30 06:50:12;;;;;;;5.85;3.45;;;;;;;;;;4953240;29;20261;-84
2023/10/30 06:52:55;;;;;;;7.88;3.10;;;;;;;;;;4956485;29;20213;-86
2023/10/30 06:55:24;;;;;;;4.30;2.70;;;;;;;;;;4959463;29;20231;-87
2023/10/30 06:57:53;;;;;;;3.22;3.00;;;;;;;;;;4958138;29;20215;-86
2023/10/30 07:00:23;;;;;;;6.50;3.40;;;;;;;;;;4946860;29;20207;-86
2023/10/30 07:02:53;;;;;;;3.03;2.83;;;;;;;;;;4956033;29;20265;-86
2023/10/30 07:05:21;;;;;;;5.55;3.22;;;;;;;;;;4986305;28;20392;-87
2023/10/30 07:07:51;;;;;;;4.00;3.63;;;;;;;;;;4995331;28;20209;-86
2023/10/30 07:10:20;;;;;;;4.05;3.72;;;;;;;;;;4979166;23;20255;-86
2023/10/30 07:12:48;;;;;;;5.57;3.90;;;;;;;;;;4937360;29;20203;-88
2023/10/30 07:15:21;;;;;;;15.85;4.47;;;;;;;;;;4937703;29;20203;-86
2023/10/30 07:18:04;;;;;;;8.43;4.13;;;;;;;;;;4939583;29;20204;-86
2023/10/30 07:20:40;;;;;;;5.95;3.80;;;;;;;;;;4938713;29;20206;-83
2023/10/30 07:26:07;;;;;;;5.45;3.83;;;;;;;;;;4941480;29;20211;-87
2023/10/30 07:28:45;;;;;;;3.97;3.63;;;;;;;;;;4949183;29;20210;-85
2023/10/30 07:31:28;;;;;;;7.55;4.05;;;;;;;;;;4954868;28;20287;-84
2023/10/30 07:34:02;;;;;;;5.75;3.58;;;;;;;;;;4954873;29;20279;-84
2023/10/30 07:36:33;;;;;;;5.35;4.05;;;;;;;;;;4937995;29;20250;-85
2023/10/30 07:39:07;;;;;;;4.57;4.05;;;;;;;;;;4936705;29;20227;-86
2023/10/30 07:41:34;;;;;;;4.25;3.95;;;;;;;;;;4918759;29;20243;-85
2023/10/30 07:44:07;;;;;;;9.98;4.22;;;;;;;;;;4928818;29;20206;-84
2023/10/30 07:46:41;;;;;;;5.03;4.10;;;;;;;;;;4929784;29;20553;-85
2023/10/30 07:49:11;;;;;;;7.07;3.45;;;;;;;;;;4948063;28;20297;-85
2023/10/30 07:51:47;;;;;;;4.80;4.13;;;;;;;;;;4950457;28;20212;-84
2023/10/30 07:54:17;;;;;;;8.80;4.57;;;;;;;;;;4939061;29;20385;-86
2023/10/30 07:56:47;;;;;;;4.47;4.10;;;;;;;;;;4954945;29;20207;-85
2023/10/30 07:59:20;;;;;;;5.05;3.90;;;;;;;;;;4960269;29;20210;-85
2023/10/30 08:01:51;;;;;;;4.55;4.13;;;;;;;;;;4960726;28;20298;-86
2023/10/30 08:04:22;;;;;;;9.85;4.72;;;;;;;;;;4955294;28;20231;-87
2023/10/30 08:06:52;;;;;;;10.43;4.50;;;;;;;;;;4920466;28;20227;-87
2023/10/30 08:09:21;;;;;;;3.90;3.60;;;;;;;;;;4916742;29;20287;-87
2023/10/30 08:11:50;;;;;;;4.53;4.13;;;;;;;;;;4916063;29;20236;-85
2023/10/30 08:14:19;;;;;;;4.05;3.58;;;;;;;;;;4918903;29;20223;-86
2023/10/30 08:16:52;;;;;;;10.35;4.32;;;;;;;;;;4934392;28;20262;-87
2023/10/30 08:19:19;;;;;;;7.70;3.42;;;;;;;;;;4938119;29;20235;-86
2023/10/30 08:21:47;;;;;;;3.17;2.92;;;;;;;;;;4934237;28;20284;-86
2023/10/30 08:24:18;;;;;;;3.22;2.83;;;;;;;;;;4934621;29;20226;-85
2023/10/30 08:26:49;;;;;;;4.55;3.65;;;;;;;;;;4931225;29;20224;-84
2023/10/30 08:29:17;;;;;;;4.78;3.38;;;;;;;;;;4935441;29;20231;-86
2023/10/30 08:31:45;;;;;;;10.43;3.92;;;;;;;;;;4931360;29;20241;-86
2023/10/30 08:34:19;;;;;;;4.97;4.22;;;;;;;;;;4933829;29;20484;-87
2023/10/30 08:36:46;;;;;;;8.07;3.97;;;;;;;;;;4932145;29;20228;-86
2023/10/30 08:39:15;;;;;;;4.13;3.80;;;;;;;;;;4934259;29;20663;-86
2023/10/30 08:41:47;;;;;;;3.85;3.45;;;;;;;;;;4933743;29;20338;-85
2023/10/30 08:44:17;;;;;;;8.00;4.40;;;;;;;;;;4937319;29;20227;-84
2023/10/30 08:46:48;;;;;;;5.35;3.95;;;;;;;;;;4934385;28;20791;-85
2023/10/30 08:49:17;;;;;;;5.00;4.47;;;;;;;;;;4939591;29;20251;-83
2023/10/30 08:51:46;;;;;;;6.60;4.05;;;;;;;;;;4931518;28;20241;-86
2023/10/30 08:54:15;;;;;;;4.50;4.00;;;;;;;;;;4934019;29;20354;-85
2023/10/30 08:56:48;;;;;;;4.90;4.50;;;;;;;;;;4929600;28;20243;-86
2023/10/30 08:59:15;;;;;;;7.93;4.22;;;;;;;;;;4935112;29;20311;-86
2023/10/30 09:01:43;;;;;;;6.45;4.32;;;;;;;;;;4929913;28;20243;-86
2023/10/30 09:04:16;;;;;;;5.93;4.18;;;;;;;;;;4936282;29;20228;-85
2023/10/30 09:06:49;;;;;;;11.13;4.35;;;;;;;;;;4935068;28;20721;-84
2023/10/30 09:09:23;;;;;;;4.57;3.70;;;;;;;;;;4932901;29;20601;-87
2023/10/30 09:11:55;;;;;;;7.75;3.70;;;;;;;;;;4932454;28;20275;-86
2023/10/30 09:14:25;;;;;;;4.28;3.88;;;;;;;;;;4935399;29;20266;-86
2023/10/30 09:16:55;;;;;;;8.57;4.05;;;;;;;;;;4935414;29;20255;-86
2023/10/30 09:19:23;;;;;;;10.27;3.70;;;;;;;;;;4934774;29;20242;-86
2023/10/30 09:21:52;;;;;;;4.70;3.67;;;;;;;;;;4933863;29;20759;-86
2023/10/30 09:24:22;;;;;;;5.63;4.05;;;;;;;;;;4944341;28;20762;-85
2023/10/30 09:26:53;;;;;;;6.57;3.58;;;;;;;;;;4952632;29;20254;-84
2023/10/30 09:29:45;;;;;;;5.40;3.60;;;;;;;;;;4952531;28;20243;-85
2023/10/30 09:32:18;;;;;;;3.85;3.55;;;;;;;;;;4952079;29;20230;-87
2023/10/30 09:34:47;;;;;;;5.25;3.90;;;;;;;;;;4955154;29;20231;-87
2023/10/30 09:37:19;;;;;;;8.45;3.47;;;;;;;;;;4955163;29;20230;-86
2023/10/30 09:39:51;;;;;;;4.63;3.45;;;;;;;;;;4940888;28;20235;-86
2023/10/30 09:42:37;;;;;;;4.22;2.90;;;;;;;;;;4953699;29;20234;-86
2023/10/30 09:45:11;;;;;;;6.22;2.33;;;;;;;;;;4942428;29;20258;-86
2023/10/30 09:47:42;;;;;;;3.35;3.05;;;;;;;;;;4935191;29;20315;-84
2023/10/30 09:50:15;;;;;;;7.50;2.65;;;;;;;;;;4934337;28;20265;-86
2023/10/30 09:52:51;;;;;;;2.25;2.05;;;;;;;;;;4934115;29;20242;-86
2023/10/30 09:55:24;;;;;;;4.45;2.28;;;;;;;;;;4940420;28;20251;-86
2023/10/30 09:57:59;;;;;;;2.35;2.17;;;;;;;;;;4939489;29;20341;-86
2023/10/30 10:00:30;;;;;;;3.63;1.88;;;;;;;;;;4936639;28;20791;-85
2023/10/30 10:03:04;;;;;;;6.05;2.13;;;;;;;;;;4938816;29;20262;-86
2023/10/30 10:05:38;;;;;;;3.15;2.40;;;;;;;;;;4937847;28;20714;-84
2023/10/30 10:08:08;;;;;;;2.45;2.25;;;;;;;;;;4937239;29;20257;-86
2023/10/30 10:10:54;;;;;;;2.30;2.20;;;;;;;;;;4933967;28;20692;-86
2023/10/30 10:13:37;;;;;;;4.03;2.05;;;;;;;;;;4937747;29;20613;-86
2023/10/30 10:16:12;;;;;;;3.17;1.95;;;;;;;;;;4937824;29;20235;-86
2023/10/30 10:18:43;;;;;;;3.20;1.75;;;;;;;;;;4941153;29;20258;-86
2023/10/30 10:21:43;;;;;;;4.30;1.60;;;;;;;;;;4940998;29;20841;-86
2023/10/30 10:27:28;;;;;;;6.05;2.38;;;;;;;;;;4939326;29;20284;-88
2023/10/30 10:30:25;;;;;;;8.98;1.83;;;;;;;;;;4931707;28;20234;-85
2023/10/30 10:36:05;;;;;;;5.07;2.53;;;;;;;;;;4942188;28;20235;-85
2023/10/30 10:38:41;;;;;;;4.30;2.30;;;;;;;;;;4950956;29;20228;-87
2023/10/30 10:41:10;;;;;;;3.40;2.95;;;;;;;;;;4950002;28;20230;-86
2023/10/30 10:43:42;;;;;;;2.47;2.38;;;;;;;;;;4944410;29;20250;-87
2023/10/30 10:46:13;;;;;;;3.80;2.35;;;;;;;;;;4933970;29;20266;-84
2023/10/30 10:48:44;;;;;;;1.65;1.55;;;;;;;;;;4940271;29;20239;-84
2023/10/30 10:51:21;;;;;;;8.18;1.42;;;;;;;;;;4932182;29;20246;-86
2023/10/30 10:53:51;;;;;;;1.75;1.00;;;;;;;;;;4934699;29;20314;-85
2023/10/30 10:56:26;;;;;;;1.48;1.35;;;;;;;;;;4931883;29;20239;-85
2023/10/30 10:59:01;;;;;;;1.25;0.98;;;;;;;;;;4935767;29;20227;-85
2023/10/30 11:01:33;;;;;;;1.23;1.13;;;;;;;;;;4932990;29;20310;-85
2023/10/30 11:04:04;;;;;;;4.60;0.90;;;;;;;;;;4935861;29;20242;-84
2023/10/30 11:06:37;;;;;;;3.15;1.67;;;;;;;;;;4934823;29;20370;-83
2023/10/30 11:09:22;;;;;;;;;;;;;;;;;;;;;
2023/10/30 11:11:55;;;;;;;1.70;1.30;;;;;;;;;;4937038;29;20207;-84
2023/10/30 11:14:27;;;;;;;4.43;1.55;;;;;;;;;;4938587;29;20235;-84
2023/10/30 11:16:57;;;;;;;3.03;1.63;;;;;;;;;;4938991;29;20499;-83
2023/10/30 11:19:26;;;;;;;2.42;1.63;;;;;;;;;;4939091;29;20198;-84
2023/10/30 11:21:59;;;;;;;4.03;1.60;;;;;;;;;;4937229;29;20293;-84
2023/10/30 11:24:42;;;;;;;3.20;1.85;;;;;;;;;;4938994;29;20230;-84
2023/10/30 11:27:29;;;;;;;4.07;1.75;;;;;;;;;;4936748;29;20207;-86
2023/10/30 11:30:03;;;;;;;6.30;1.67;;;;;;;;;;4936250;29;20210;-85
2023/10/30 11:32:39;;;;;;;2.28;2.17;;;;;;;;;;4937021;29;20206;-85
2023/10/30 11:35:09;;;;;;;1.83;1.70;;;;;;;;;;4936024;29;20278;-84
2023/10/30 11:37:39;;;;;;;5.10;2.15;;;;;;;;;;4937051;29;20680;-85
2023/10/30 11:40:28;;;;;;;2.90;1.65;;;;;;;;;;4931822;29;20231;-84
2023/10/30 11:42:56;;;;;;;2.80;1.70;;;;;;;;;;4933793;28;20286;-85
2023/10/30 11:45:28;;;;;;;5.82;1.83;;;;;;;;;;4936565;29;20696;-84
2023/10/30 11:48:05;;;;;;;4.45;1.73;;;;;;;;;;4913264;29;20291;-84
2023/10/30 11:50:38;;;;;;;5.25;1.73;;;;;;;;;;4915675;29;20224;-84
2023/10/30 11:53:12;;;;;;;4.43;1.70;;;;;;;;;;4913909;29;20238;-84
2023/10/30 11:55:42;;;;;;;1.77;1.67;;;;;;;;;;4916481;29;20596;-86
2023/10/30 11:58:11;;;;;;;4.60;1.65;;;;;;;;;;4924092;29;20610;-85
2023/10/30 12:00:42;;;;;;;2.92;1.75;;;;;;;;;;4926013;29;20299;-84
2023/10/30 12:03:11;;;;;;;4.80;1.70;;;;;;;;;;4920348;29;20256;-86
2023/10/30 12:05:44;;;;;;;3.25;1.63;;;;;;;;;;4921549;29;20228;-86
2023/10/30 12:08:22;;;;;;;2.03;1.70;;;;;;;;;;4915942;29;20281;-87
2023/10/30 12:10:55;;;;;;;1.65;1.55;;;;;;;;;;4915738;29;20764;-86
2023/10/30 12:13:24;;;;;;;2.63;1.73;;;;;;;;;;4912750;29;20231;-85
2023/10/30 12:15:52;;;;;;;1.60;1.50;;;;;;;;;;4919145;29;20281;-85
2023/10/30 12:18:23;;;;;;;1.48;1.48;;;;;;;;;;4934568;29;20232;-85
2023/10/30 12:20:52;;;;;;;2.80;1.45;;;;;;;;;;4935498;29;20223;-84
2023/10/30 12:23:24;;;;;;;4.03;1.70;;;;;;;;;;4932955;29;20243;-86
2023/10/30 12:25:52;;;;;;;4.18;1.27;;;;;;;;;;4934838;29;20333;-85
2023/10/30 12:28:24;;;;;;;1.27;1.25;;;;;;;;;;4933821;29;20261;-85
2023/10/30 12:30:55;;;;;;;3.00;1.60;;;;;;;;;;4933915;29;20706;-86
2023/10/30 12:33:27;;;;;;;3.95;1.38;;;;;;;;;;4934059;29;20224;-85
2023/10/30 12:35:59;;;;;;;1.60;1.50;;;;;;;;;;4934777;29;20223;-86
2023/10/30 12:38:51;;;;;;;2.25;1.40;;;;;;;;;;4928927;29;20681;-87
2023/10/30 12:41:21;;;;;;;1.92;1.52;;;;;;;;;;4934190;29;20238;-87
2023/10/30 12:43:52;;;;;;;3.60;1.20;;;;;;;;;;4933917;29;20243;-86
2023/10/30 12:46:22;;;;;;;2.05;1.23;;;;;;;;;;4933811;29;20227;-84
2023/10/30 12:48:51;;;;;;;1.98;1.08;;;;;;;;;;4932471;28;21054;-85
2023/10/30 12:51:19;;;;;;;4.25;0.90;;;;;;;;;;4934422;29;20388;-85
2023/10/30 12:53:56;;;;;;;9.70;1.10;;;;;;;;;;4932505;28;20604;-83
2023/10/30 12:56:27;;;;;;;1.00;1.00;;;;;;;;;;4935653;29;20628;-85
2023/10/30 12:58:57;;;;;;;1.45;1.00;;;;;;;;;;4933316;28;20230;-84
2023/10/30 13:01:35;;;;;;;2.45;0.93;;;;;;;;;;4935430;29;20228;-84
2023/10/30 13:04:08;;;;;;;1.30;1.17;;;;;;;;;;4931862;28;20253;-83
2023/10/30 13:06:37;;;;;;;1.33;0.90;;;;;;;;;;4934555;29;20239;-84
2023/10/30 13:09:23;;;;;;;0.85;0.82;;;;;;;;;;4932894;28;20314;-85
2023/10/30 13:11:56;;;;;;;3.17;1.33;;;;;;;;;;4933595;29;20231;-86
2023/10/30 13:14:26;;;;;;;1.63;1.45;;;;;;;;;;4930844;28;20723;-84
2023/10/30 13:16:54;;;;;;;2.03;1.42;;;;;;;;;;4933894;29;20242;-84
2023/10/30 13:19:23;;;;;;;1.50;1.40;;;;;;;;;;4934050;28;20331;-83
2023/10/30 13:21:52;;;;;;;5.38;1.52;;;;;;;;;;4934574;29;20246;-85
2023/10/30 13:24:23;;;;;;;1.70;1.60;;;;;;;;;;4937716;29;20239;-84
2023/10/30 13:26:55;;;;;;;2.40;1.48;;;;;;;;;;4941943;28;20230;-83
2023/10/30 13:29:27;;;;;;;6.65;1.83;;;;;;;;;;4939308;29;20284;-86
2023/10/30 13:31:58;;;;;;;8.18;1.88;;;;;;;;;;4935232;28;20223;-86
2023/10/30 13:34:26;;;;;;;3.40;1.65;;;;;;;;;;4941727;29;20251;-86
2023/10/30 13:36:55;;;;;;;2.65;1.40;;;;;;;;;;4944637;28;20219;-87
2023/10/30 13:39:25;;;;;;;10.60;5.57;;;;;;;;;;4955373;29;20239;-81
2023/10/30 13:41:56;;;;;;;2.47;1.50;;;;;;;;;;4944053;28;20230;-83
2023/10/30 13:44:29;;;;;;;3.42;2.17;;;;;;;;;;4936760;29;20329;-84
2023/10/30 13:47:03;;;;;;;2.45;1.70;;;;;;;;;;4931689;28;20674;-85
2023/10/30 13:49:43;;;;;;;;;;;;;;;;;;;;;
2023/10/30 13:52:23;;;;;;;4.60;1.48;;;;;;;;;;4931984;29;20231;-86
2023/10/30 13:55:03;;;;;;;1.60;1.50;;;;;;;;;;4935624;29;20223;-84
2023/10/30 13:57:37;;;;;;;1.15;1.15;;;;;;;;;;4933493;29;20238;-84
2023/10/30 14:00:13;;;;;;;2.78;1.52;;;;;;;;;;4933493;29;20223;-84
2023/10/30 14:02:41;;;;;;;2.20;1.35;;;;;;;;;;4932415;29;20227;-84
2023/10/30 14:05:15;;;;;;;3.92;1.75;;;;;;;;;;4933632;29;20585;-85
2023/10/30 14:07:43;;;;;;;1.42;1.25;;;;;;;;;;4933249;29;20231;-86
2023/10/30 14:10:13;;;;;;;1.58;1.50;;;;;;;;;;4932963;29;20298;-86
2023/10/30 14:12:44;;;;;;;2.75;1.40;;;;;;;;;;4930765;29;20230;-83
2023/10/30 14:15:14;;;;;;;3.88;1.70;;;;;;;;;;4933916;29;20234;-82
2023/10/30 14:17:46;;;;;;;1.60;1.50;;;;;;;;;;4930702;28;20296;-84
2023/10/30 14:20:16;;;;;;;2.38;1.25;;;;;;;;;;4933589;29;20684;-84
2023/10/30 14:22:44;;;;;;;1.45;1.35;;;;;;;;;;4930435;28;20705;-84
2023/10/30 14:25:14;;;;;;;3.72;1.25;;;;;;;;;;4933181;29;20692;-84
2023/10/30 14:27:42;;;;;;;4.18;1.40;;;;;;;;;;4931315;28;20223;-84
2023/10/30 14:30:17;;;;;;;1.90;1.33;;;;;;;;;;4932943;29;20231;-84
2023/10/30 14:32:50;;;;;;;2.45;0.98;;;;;;;;;;4934215;29;20229;-83
2023/10/30 14:35:21;;;;;;;1.80;1.20;;;;;;;;;;4938684;29;20590;-85
2023/10/30 14:37:53;;;;;;;2.35;1.40;;;;;;;;;;4943683;29;20204;-85
2023/10/30 14:40:23;;;;;;;2.00;1.27;;;;;;;;;;4944479;29;20196;-85
2023/10/30 14:42:54;;;;;;;2.28;1.35;;;;;;;;;;4940427;29;20695;-84
2023/10/30 14:45:23;;;;;;;3.97;1.73;;;;;;;;;;4944996;29;20223;-84
2023/10/30 14:47:56;;;;;;;1.67;1.55;;;;;;;;;;4947415;29;20226;-84
2023/10/30 14:50:28;;;;;;;3.15;1.50;;;;;;;;;;4946056;29;20671;-84
2023/10/30 14:52:56;;;;;;;3.17;2.20;;;;;;;;;;4950080;29;20732;-85
2023/10/30 14:55:27;;;;;;;3.47;1.77;;;;;;;;;;4948259;29;20211;-82
2023/10/30 14:57:56;;;;;;;4.75;2.15;;;;;;;;;;4949072;29;20237;-85
2023/10/30 15:00:24;;;;;;;2.05;1.38;;;;;;;;;;4947596;29;20245;-83
2023/10/30 15:02:58;;;;;;;2.53;1.33;;;;;;;;;;4956678;28;20226;-83
2023/10/30 15:05:33;;;;;;;1.92;1.20;;;;;;;;;;4960491;28;20198;-84
2023/10/30 15:08:03;;;;;;;1.77;1.67;;;;;;;;;;4959772;28;20238;-84
2023/10/30 15:10:33;;;;;;;2.33;1.40;;;;;;;;;;4959757;28;20229;-84
2023/10/30 15:13:02;;;;;;;4.18;1.33;;;;;;;;;;4960371;28;20187;-84
2023/10/30 15:15:31;;;;;;;3.08;1.42;;;;;;;;;;4960215;28;20460;-85
2023/10/30 15:18:02;;;;;;;3.83;1.85;;;;;;;;;;4956464;29;20197;-85
2023/10/30 15:20:32;;;;;;;1.83;1.30;;;;;;;;;;4945354;29;20207;-83